sensor_id;sensor_type;location;lat;lon;timestamp;temperature;humidity
56861;DHT22;42744;51.094;3.490;2023-07-09T00:01:03;20.50;99.90
56861;DHT22;42744;51.094;3.490;2023-07-09T00:03:29;20.50;99.90
56861;DHT22;42744;51.094;3.490;2023-07-09T00:05:55;20.50;99.90
56861;DHT22;42744;51.094;3.490;2023-07-09T00:08:29;20.40;99.90
56861;DHT22;42744;51.094;3.490;2023-07-09T00:10:56;20.40;99.90
56861;DHT22;42744;51.094;3.490;2023-07-09T00:13:27;20.40;99.90
56861;DHT22;42744;51.094;3.490;2023-07-09T00:15:58;20.40;99.90
56861;DHT22;42744;51.094;3.490;2023-07-09T00:18:25;20.40;99.90
56861;DHT22;42744;51.094;3.490;2023-07-09T00:20:51;20.40;99.90
56861;DHT22;42744;51.094;3.490;2023-07-09T00:23:17;20.30;99.90
56861;DHT22;42744;51.094;3.490;2023-07-09T00:25:47;20.30;99.90
56861;DHT22;42744;51.094;3.490;2023-07-09T00:28:14;20.30;99.90
56861;DHT22;42744;51.094;3.490;2023-07-09T00:30:41;20.20;99.90
56861;DHT22;42744;51.094;3.490;2023-07-09T00:33:15;20.20;99.90
56861;DHT22;42744;51.094;3.490;2023-07-09T00:35:48;20.20;99.90
56861;DHT22;42744;51.094;3.490;2023-07-09T00:38:21;20.20;99.90
56861;DHT22;42744;51.094;3.490;2023-07-09T00:41:01;20.20;99.90
56861;DHT22;42744;51.094;3.490;2023-07-09T00:43:31;20.20;99.90
56861;DHT22;42744;51.094;3.490;2023-07-09T00:48:43;20.20;99.90
56861;DHT22;42744;51.094;3.490;2023-07-09T00:51:17;20.10;99.90
56861;DHT22;42744;51.094;3.490;2023-07-09T00:53:49;20.10;99.90
56861;DHT22;42744;51.094;3.490;2023-07-09T00:56:30;20.00;99.90
56861;DHT22;42744;51.094;3.490;2023-07-09T00:59:01;20.00;99.90
56861;DHT22;42744;51.094;3.490;2023-07-09T01:01:31;20.00;99.90
56861;DHT22;42744;51.094;3.490;2023-07-09T01:03:59;20.00;99.90
56861;DHT22;42744;51.094;3.490;2023-07-09T01:06:39;19.90;99.90
56861;DHT22;42744;51.094;3.490;2023-07-09T01:09:07;19.90;99.90
56861;DHT22;42744;51.094;3.490;2023-07-09T01:11:34;19.90;99.90
56861;DHT22;42744;51.094;3.490;2023-07-09T01:14:02;19.80;99.90
56861;DHT22;42744;51.094;3.490;2023-07-09T01:16:31;19.80;99.90
56861;DHT22;42744;51.094;3.490;2023-07-09T01:18:58;19.80;99.90
56861;DHT22;42744;51.094;3.490;2023-07-09T01:21:26;19.80;99.90
56861;DHT22;42744;51.094;3.490;2023-07-09T01:23:53;19.70;99.90
56861;DHT22;42744;51.094;3.490;2023-07-09T01:26:23;19.70;99.90
56861;DHT22;42744;51.094;3.490;2023-07-09T01:28:53;19.70;99.90
56861;DHT22;42744;51.094;3.490;2023-07-09T01:31:20;19.60;99.90
56861;DHT22;42744;51.094;3.490;2023-07-09T01:33:46;19.60;99.90
56861;DHT22;42744;51.094;3.490;2023-07-09T01:36:16;19.60;99.90
56861;DHT22;42744;51.094;3.490;2023-07-09T01:38:43;19.60;99.90
56861;DHT22;42744;51.094;3.490;2023-07-09T01:41:11;19.50;99.90
56861;DHT22;42744;51.094;3.490;2023-07-09T01:43:39;19.50;99.90
56861;DHT22;42744;51.094;3.490;2023-07-09T01:46:08;19.40;99.90
56861;DHT22;42744;51.094;3.490;2023-07-09T01:48:35;19.40;99.90
56861;DHT22;42744;51.094;3.490;2023-07-09T01:51:14;19.40;99.90
56861;DHT22;42744;51.094;3.490;2023-07-09T01:53:44;19.40;99.90
56861;DHT22;42744;51.094;3.490;2023-07-09T01:56:10;19.40;99.90
56861;DHT22;42744;51.094;3.490;2023-07-09T01:58:36;19.40;99.90
56861;DHT22;42744;51.094;3.490;2023-07-09T02:01:05;19.40;99.90
56861;DHT22;42744;51.094;3.490;2023-07-09T02:03:32;19.40;99.90
56861;DHT22;42744;51.094;3.490;2023-07-09T02:05:58;19.40;99.90
56861;DHT22;42744;51.094;3.490;2023-07-09T02:08:25;19.40;99.90
56861;DHT22;42744;51.094;3.490;2023-07-09T02:10:51;19.40;99.90
56861;DHT22;42744;51.094;3.490;2023-07-09T02:13:17;19.40;99.90
56861;DHT22;42744;51.094;3.490;2023-07-09T02:15:44;19.30;99.90
56861;DHT22;42744;51.094;3.490;2023-07-09T02:18:14;19.30;99.90
56861;DHT22;42744;51.094;3.490;2023-07-09T02:20:40;19.30;99.90
56861;DHT22;42744;51.094;3.490;2023-07-09T02:23:07;19.30;99.90
56861;DHT22;42744;51.094;3.490;2023-07-09T02:25:34;19.30;99.90
56861;DHT22;42744;51.094;3.490;2023-07-09T02:28:00;19.30;99.90
56861;DHT22;42744;51.094;3.490;2023-07-09T02:30:26;19.20;99.90
56861;DHT22;42744;51.094;3.490;2023-07-09T02:32:52;19.20;99.90
56861;DHT22;42744;51.094;3.490;2023-07-09T02:35:20;19.20;99.90
56861;DHT22;42744;51.094;3.490;2023-07-09T02:37:46;19.10;99.90
56861;DHT22;42744;51.094;3.490;2023-07-09T02:40:13;19.10;99.90
56861;DHT22;42744;51.094;3.490;2023-07-09T02:42:39;19.10;99.90
56861;DHT22;42744;51.094;3.490;2023-07-09T02:45:05;19.10;99.90
56861;DHT22;42744;51.094;3.490;2023-07-09T02:47:32;19.00;99.90
56861;DHT22;42744;51.094;3.490;2023-07-09T02:49:58;19.00;99.90
56861;DHT22;42744;51.094;3.490;2023-07-09T02:52:24;19.00;99.90
56861;DHT22;42744;51.094;3.490;2023-07-09T02:54:50;19.00;99.90
56861;DHT22;42744;51.094;3.490;2023-07-09T02:57:16;18.90;99.90
56861;DHT22;42744;51.094;3.490;2023-07-09T02:59:42;18.90;99.90
56861;DHT22;42744;51.094;3.490;2023-07-09T03:02:09;18.90;99.90
56861;DHT22;42744;51.094;3.490;2023-07-09T03:04:35;18.80;99.90
56861;DHT22;42744;51.094;3.490;2023-07-09T03:07:01;18.80;99.90
56861;DHT22;42744;51.094;3.490;2023-07-09T03:09:28;18.80;99.90
56861;DHT22;42744;51.094;3.490;2023-07-09T03:11:54;18.80;99.90
56861;DHT22;42744;51.094;3.490;2023-07-09T03:14:20;18.80;99.90
56861;DHT22;42744;51.094;3.490;2023-07-09T03:16:46;18.70;99.90
56861;DHT22;42744;51.094;3.490;2023-07-09T03:19:12;18.70;99.90
56861;DHT22;42744;51.094;3.490;2023-07-09T03:21:38;18.70;99.90
56861;DHT22;42744;51.094;3.490;2023-07-09T03:24:05;18.70;99.90
56861;DHT22;42744;51.094;3.490;2023-07-09T03:26:31;18.60;99.90
56861;DHT22;42744;51.094;3.490;2023-07-09T03:28:57;18.70;99.90
56861;DHT22;42744;51.094;3.490;2023-07-09T03:31:23;18.70;99.90
56861;DHT22;42744;51.094;3.490;2023-07-09T03:33:50;18.60;99.90
56861;DHT22;42744;51.094;3.490;2023-07-09T03:36:17;18.60;99.90
56861;DHT22;42744;51.094;3.490;2023-07-09T03:38:45;18.60;99.90
56861;DHT22;42744;51.094;3.490;2023-07-09T03:41:11;18.60;99.90
56861;DHT22;42744;51.094;3.490;2023-07-09T03:43:37;18.50;99.90
56861;DHT22;42744;51.094;3.490;2023-07-09T03:46:04;18.50;99.90
56861;DHT22;42744;51.094;3.490;2023-07-09T03:48:29;18.50;99.90
56861;DHT22;42744;51.094;3.490;2023-07-09T03:50:55;18.50;99.90
56861;DHT22;42744;51.094;3.490;2023-07-09T03:53:22;18.50;99.90
56861;DHT22;42744;51.094;3.490;2023-07-09T03:55:55;18.50;99.90
56861;DHT22;42744;51.094;3.490;2023-07-09T03:58:24;18.40;99.90
56861;DHT22;42744;51.094;3.490;2023-07-09T04:00:52;18.40;99.90
56861;DHT22;42744;51.094;3.490;2023-07-09T04:03:18;18.40;99.90
56861;DHT22;42744;51.094;3.490;2023-07-09T04:05:44;18.40;99.90
56861;DHT22;42744;51.094;3.490;2023-07-09T04:08:10;18.40;99.90
56861;DHT22;42744;51.094;3.490;2023-07-09T04:10:36;18.40;99.90
56861;DHT22;42744;51.094;3.490;2023-07-09T04:13:02;18.40;99.90
56861;DHT22;42744;51.094;3.490;2023-07-09T04:15:28;18.40;99.90
56861;DHT22;42744;51.094;3.490;2023-07-09T04:17:55;18.40;99.90
56861;DHT22;42744;51.094;3.490;2023-07-09T04:20:21;18.40;99.90
56861;DHT22;42744;51.094;3.490;2023-07-09T04:22:47;18.40;99.90
56861;DHT22;42744;51.094;3.490;2023-07-09T04:25:13;18.40;99.90
56861;DHT22;42744;51.094;3.490;2023-07-09T04:27:39;18.40;99.90
56861;DHT22;42744;51.094;3.490;2023-07-09T04:30:09;18.50;99.90
56861;DHT22;42744;51.094;3.490;2023-07-09T04:32:36;18.40;99.90
56861;DHT22;42744;51.094;3.490;2023-07-09T04:35:02;18.50;99.90
56861;DHT22;42744;51.094;3.490;2023-07-09T04:37:31;18.50;99.90
56861;DHT22;42744;51.094;3.490;2023-07-09T04:39:58;18.50;99.90
56861;DHT22;42744;51.094;3.490;2023-07-09T04:42:24;18.50;99.90
56861;DHT22;42744;51.094;3.490;2023-07-09T04:44:50;18.50;99.90
56861;DHT22;42744;51.094;3.490;2023-07-09T04:47:16;18.50;99.90
56861;DHT22;42744;51.094;3.490;2023-07-09T04:49:42;18.60;99.90
56861;DHT22;42744;51.094;3.490;2023-07-09T04:52:08;18.60;99.90
56861;DHT22;42744;51.094;3.490;2023-07-09T04:54:40;18.60;99.90
56861;DHT22;42744;51.094;3.490;2023-07-09T04:57:09;18.60;99.90
56861;DHT22;42744;51.094;3.490;2023-07-09T04:59:36;18.60;99.90
56861;DHT22;42744;51.094;3.490;2023-07-09T05:02:02;18.60;99.90
56861;DHT22;42744;51.094;3.490;2023-07-09T05:04:30;18.60;99.90
56861;DHT22;42744;51.094;3.490;2023-07-09T05:06:57;18.70;99.90
56861;DHT22;42744;51.094;3.490;2023-07-09T05:09:24;18.70;99.90
56861;DHT22;42744;51.094;3.490;2023-07-09T05:11:50;18.70;99.90
56861;DHT22;42744;51.094;3.490;2023-07-09T05:14:17;18.70;99.90
56861;DHT22;42744;51.094;3.490;2023-07-09T05:16:44;18.80;99.90
56861;DHT22;42744;51.094;3.490;2023-07-09T05:19:11;18.80;99.90
56861;DHT22;42744;51.094;3.490;2023-07-09T05:21:37;18.80;99.90
56861;DHT22;42744;51.094;3.490;2023-07-09T05:24:04;18.90;99.90
56861;DHT22;42744;51.094;3.490;2023-07-09T05:26:30;18.90;99.90
56861;DHT22;42744;51.094;3.490;2023-07-09T05:28:56;19.00;99.90
56861;DHT22;42744;51.094;3.490;2023-07-09T05:31:23;19.00;99.90
56861;DHT22;42744;51.094;3.490;2023-07-09T05:33:49;19.10;99.90
56861;DHT22;42744;51.094;3.490;2023-07-09T05:36:15;19.10;99.90
56861;DHT22;42744;51.094;3.490;2023-07-09T05:38:42;19.20;99.90
56861;DHT22;42744;51.094;3.490;2023-07-09T05:41:09;19.30;99.90
56861;DHT22;42744;51.094;3.490;2023-07-09T05:43:35;19.30;99.90
56861;DHT22;42744;51.094;3.490;2023-07-09T05:46:04;19.30;99.90
56861;DHT22;42744;51.094;3.490;2023-07-09T05:48:30;19.40;99.90
56861;DHT22;42744;51.094;3.490;2023-07-09T05:50:56;19.50;99.90
56861;DHT22;42744;51.094;3.490;2023-07-09T05:53:23;19.60;99.90
56861;DHT22;42744;51.094;3.490;2023-07-09T05:55:53;19.70;99.90
56861;DHT22;42744;51.094;3.490;2023-07-09T05:58:19;19.80;99.90
56861;DHT22;42744;51.094;3.490;2023-07-09T06:00:46;19.90;99.90
56861;DHT22;42744;51.094;3.490;2023-07-09T06:03:12;19.90;99.90
56861;DHT22;42744;51.094;3.490;2023-07-09T06:05:38;20.00;99.90
56861;DHT22;42744;51.094;3.490;2023-07-09T06:08:04;20.00;99.90
56861;DHT22;42744;51.094;3.490;2023-07-09T06:10:30;20.00;99.90
56861;DHT22;42744;51.094;3.490;2023-07-09T06:12:56;20.10;99.90
56861;DHT22;42744;51.094;3.490;2023-07-09T06:15:25;20.20;99.90
56861;DHT22;42744;51.094;3.490;2023-07-09T06:17:52;20.30;99.90
56861;DHT22;42744;51.094;3.490;2023-07-09T06:20:17;20.30;99.90
56861;DHT22;42744;51.094;3.490;2023-07-09T06:22:43;20.40;99.90
56861;DHT22;42744;51.094;3.490;2023-07-09T06:25:10;20.50;99.90
56861;DHT22;42744;51.094;3.490;2023-07-09T06:27:35;20.60;99.90
56861;DHT22;42744;51.094;3.490;2023-07-09T06:30:01;20.60;99.90
56861;DHT22;42744;51.094;3.490;2023-07-09T06:32:28;20.60;99.90
56861;DHT22;42744;51.094;3.490;2023-07-09T06:34:54;20.70;99.90
56861;DHT22;42744;51.094;3.490;2023-07-09T06:37:19;20.80;99.90
56861;DHT22;42744;51.094;3.490;2023-07-09T06:39:46;20.80;99.90
56861;DHT22;42744;51.094;3.490;2023-07-09T06:42:11;20.90;99.90
56861;DHT22;42744;51.094;3.490;2023-07-09T06:44:41;20.90;99.90
56861;DHT22;42744;51.094;3.490;2023-07-09T06:47:08;21.00;99.90
56861;DHT22;42744;51.094;3.490;2023-07-09T06:49:34;21.10;99.90
56861;DHT22;42744;51.094;3.490;2023-07-09T06:52:00;21.20;99.90
56861;DHT22;42744;51.094;3.490;2023-07-09T06:54:26;21.30;99.90
56861;DHT22;42744;51.094;3.490;2023-07-09T06:56:52;21.30;99.90
56861;DHT22;42744;51.094;3.490;2023-07-09T06:59:21;21.40;99.90
56861;DHT22;42744;51.094;3.490;2023-07-09T07:01:47;21.50;99.90
56861;DHT22;42744;51.094;3.490;2023-07-09T07:04:13;21.50;99.90
56861;DHT22;42744;51.094;3.490;2023-07-09T07:06:39;21.60;99.90
56861;DHT22;42744;51.094;3.490;2023-07-09T07:09:05;21.60;99.90
56861;DHT22;42744;51.094;3.490;2023-07-09T07:11:31;21.60;99.90
56861;DHT22;42744;51.094;3.490;2023-07-09T07:13:57;21.70;99.90
56861;DHT22;42744;51.094;3.490;2023-07-09T07:16:24;21.70;99.90
56861;DHT22;42744;51.094;3.490;2023-07-09T07:18:50;21.80;99.90
56861;DHT22;42744;51.094;3.490;2023-07-09T07:21:16;21.80;99.90
56861;DHT22;42744;51.094;3.490;2023-07-09T07:23:42;21.90;99.90
56861;DHT22;42744;51.094;3.490;2023-07-09T07:26:08;22.00;99.90
56861;DHT22;42744;51.094;3.490;2023-07-09T07:28:35;22.00;99.90
56861;DHT22;42744;51.094;3.490;2023-07-09T07:31:06;22.10;99.90
56861;DHT22;42744;51.094;3.490;2023-07-09T07:33:37;22.20;99.90
56861;DHT22;42744;51.094;3.490;2023-07-09T07:36:07;22.30;99.90
56861;DHT22;42744;51.094;3.490;2023-07-09T07:38:33;22.40;99.90
56861;DHT22;42744;51.094;3.490;2023-07-09T07:41:00;22.50;99.90
56861;DHT22;42744;51.094;3.490;2023-07-09T07:43:27;22.60;99.90
56861;DHT22;42744;51.094;3.490;2023-07-09T07:45:52;22.70;99.90
56861;DHT22;42744;51.094;3.490;2023-07-09T07:48:18;22.70;99.90
56861;DHT22;42744;51.094;3.490;2023-07-09T07:50:46;22.80;99.90
56861;DHT22;42744;51.094;3.490;2023-07-09T07:53:14;22.90;99.90
56861;DHT22;42744;51.094;3.490;2023-07-09T07:55:41;23.00;99.90
56861;DHT22;42744;51.094;3.490;2023-07-09T07:58:12;23.00;99.90
56861;DHT22;42744;51.094;3.490;2023-07-09T08:00:39;23.20;99.90
56861;DHT22;42744;51.094;3.490;2023-07-09T08:03:05;23.20;99.90
56861;DHT22;42744;51.094;3.490;2023-07-09T08:05:31;23.30;99.90
56861;DHT22;42744;51.094;3.490;2023-07-09T08:07:57;23.40;99.90
56861;DHT22;42744;51.094;3.490;2023-07-09T08:10:23;23.50;99.90
56861;DHT22;42744;51.094;3.490;2023-07-09T08:12:49;23.50;99.90
56861;DHT22;42744;51.094;3.490;2023-07-09T08:15:15;23.60;99.90
56861;DHT22;42744;51.094;3.490;2023-07-09T08:17:42;23.60;99.90
56861;DHT22;42744;51.094;3.490;2023-07-09T08:20:09;23.70;99.90
56861;DHT22;42744;51.094;3.490;2023-07-09T08:22:35;23.70;99.90
56861;DHT22;42744;51.094;3.490;2023-07-09T08:25:01;23.80;99.90
56861;DHT22;42744;51.094;3.490;2023-07-09T08:27:27;23.90;99.90
56861;DHT22;42744;51.094;3.490;2023-07-09T08:29:52;23.90;99.90
56861;DHT22;42744;51.094;3.490;2023-07-09T08:32:19;24.00;99.90
56861;DHT22;42744;51.094;3.490;2023-07-09T08:34:44;24.10;99.90
56861;DHT22;42744;51.094;3.490;2023-07-09T08:37:10;24.20;99.90
56861;DHT22;42744;51.094;3.490;2023-07-09T08:39:36;24.20;99.90
56861;DHT22;42744;51.094;3.490;2023-07-09T08:42:11;24.30;99.90
56861;DHT22;42744;51.094;3.490;2023-07-09T08:50:18;24.50;99.90
56861;DHT22;42744;51.094;3.490;2023-07-09T08:52:46;24.50;99.90
56861;DHT22;42744;51.094;3.490;2023-07-09T08:55:21;24.70;99.90
56861;DHT22;42744;51.094;3.490;2023-07-09T08:57:55;24.80;99.90
56861;DHT22;42744;51.094;3.490;2023-07-09T09:00:37;24.90;99.90
56861;DHT22;42744;51.094;3.490;2023-07-09T09:03:31;25.10;99.90
56861;DHT22;42744;51.094;3.490;2023-07-09T09:06:01;25.20;99.90
56861;DHT22;42744;51.094;3.490;2023-07-09T09:14:31;25.40;99.90
56861;DHT22;42744;51.094;3.490;2023-07-09T09:16:59;25.40;99.90
56861;DHT22;42744;51.094;3.490;2023-07-09T09:19:43;25.40;99.90
56861;DHT22;42744;51.094;3.490;2023-07-09T09:22:13;25.50;99.90
56861;DHT22;42744;51.094;3.490;2023-07-09T09:27:29;25.60;99.90
56861;DHT22;42744;51.094;3.490;2023-07-09T09:29:55;25.70;99.90
56861;DHT22;42744;51.094;3.490;2023-07-09T09:32:36;25.80;99.90
56861;DHT22;42744;51.094;3.490;2023-07-09T09:35:16;26.00;99.90
56861;DHT22;42744;51.094;3.490;2023-07-09T09:37:50;26.10;99.90
56861;DHT22;42744;51.094;3.490;2023-07-09T09:40:18;26.10;99.90
56861;DHT22;42744;51.094;3.490;2023-07-09T09:42:48;26.00;99.90
56861;DHT22;42744;51.094;3.490;2023-07-09T09:45:17;25.90;99.90
56861;DHT22;42744;51.094;3.490;2023-07-09T09:47:45;25.90;99.90
56861;DHT22;42744;51.094;3.490;2023-07-09T09:50:21;25.90;99.90
56861;DHT22;42744;51.094;3.490;2023-07-09T09:52:48;25.70;99.90
56861;DHT22;42744;51.094;3.490;2023-07-09T09:55:18;25.50;99.90
56861;DHT22;42744;51.094;3.490;2023-07-09T09:57:52;25.30;99.90
56861;DHT22;42744;51.094;3.490;2023-07-09T10:00:22;25.20;99.90
56861;DHT22;42744;51.094;3.490;2023-07-09T10:02:49;25.10;99.90
56861;DHT22;42744;51.094;3.490;2023-07-09T10:05:16;25.10;99.90
56861;DHT22;42744;51.094;3.490;2023-07-09T10:07:47;25.10;99.90
56861;DHT22;42744;51.094;3.490;2023-07-09T10:10:20;25.10;99.90
56861;DHT22;42744;51.094;3.490;2023-07-09T10:23:33;24.90;99.90
56861;DHT22;42744;51.094;3.490;2023-07-09T10:26:14;24.80;99.90
56861;DHT22;42744;51.094;3.490;2023-07-09T10:40:09;24.90;99.90
56861;DHT22;42744;51.094;3.490;2023-07-09T10:42:50;24.90;99.90
56861;DHT22;42744;51.094;3.490;2023-07-09T10:45:40;24.80;99.90
56861;DHT22;42744;51.094;3.490;2023-07-09T10:48:20;24.70;99.90
56861;DHT22;42744;51.094;3.490;2023-07-09T10:50:53;24.60;99.90
56861;DHT22;42744;51.094;3.490;2023-07-09T10:53:50;24.50;99.90
56861;DHT22;42744;51.094;3.490;2023-07-09T10:56:25;24.40;99.90
56861;DHT22;42744;51.094;3.490;2023-07-09T10:59:32;24.30;99.90
56861;DHT22;42744;51.094;3.490;2023-07-09T11:02:33;24.20;99.90
56861;DHT22;42744;51.094;3.490;2023-07-09T11:05:03;24.20;99.90
56861;DHT22;42744;51.094;3.490;2023-07-09T11:08:00;24.20;99.90
56861;DHT22;42744;51.094;3.490;2023-07-09T11:10:36;24.30;99.90
56861;DHT22;42744;51.094;3.490;2023-07-09T11:13:10;24.40;99.90
56861;DHT22;42744;51.094;3.490;2023-07-09T11:15:42;24.40;99.90
56861;DHT22;42744;51.094;3.490;2023-07-09T11:18:16;24.40;99.90
56861;DHT22;42744;51.094;3.490;2023-07-09T11:20:45;24.60;99.90
56861;DHT22;42744;51.094;3.490;2023-07-09T11:23:22;24.70;99.90
56861;DHT22;42744;51.094;3.490;2023-07-09T11:26:03;24.80;99.90
56861;DHT22;42744;51.094;3.490;2023-07-09T11:28:36;24.70;99.90
56861;DHT22;42744;51.094;3.490;2023-07-09T11:31:07;24.60;99.90
56861;DHT22;42744;51.094;3.490;2023-07-09T11:33:33;24.50;99.90
56861;DHT22;42744;51.094;3.490;2023-07-09T11:36:08;24.40;99.90
56861;DHT22;42744;51.094;3.490;2023-07-09T11:38:47;24.30;99.90
56861;DHT22;42744;51.094;3.490;2023-07-09T11:43:51;24.10;99.90
56861;DHT22;42744;51.094;3.490;2023-07-09T11:46:22;24.00;99.90
56861;DHT22;42744;51.094;3.490;2023-07-09T11:48:51;23.90;99.90
56861;DHT22;42744;51.094;3.490;2023-07-09T11:51:23;23.80;99.90
56861;DHT22;42744;51.094;3.490;2023-07-09T11:53:55;23.70;99.90
56861;DHT22;42744;51.094;3.490;2023-07-09T11:56:23;23.60;99.90
56861;DHT22;42744;51.094;3.490;2023-07-09T11:58:54;23.60;99.90
56861;DHT22;42744;51.094;3.490;2023-07-09T12:01:43;23.60;99.90
56861;DHT22;42744;51.094;3.490;2023-07-09T12:04:17;23.60;99.90
56861;DHT22;42744;51.094;3.490;2023-07-09T12:06:44;23.60;99.90
56861;DHT22;42744;51.094;3.490;2023-07-09T12:09:17;23.60;99.90
56861;DHT22;42744;51.094;3.490;2023-07-09T12:11:45;23.50;99.90
56861;DHT22;42744;51.094;3.490;2023-07-09T12:14:14;23.50;99.90
56861;DHT22;42744;51.094;3.490;2023-07-09T12:16:43;23.30;99.90
56861;DHT22;42744;51.094;3.490;2023-07-09T12:19:12;23.20;99.90
56861;DHT22;42744;51.094;3.490;2023-07-09T12:21:40;23.20;99.90
56861;DHT22;42744;51.094;3.490;2023-07-09T12:26:57;22.80;99.90
56861;DHT22;42744;51.094;3.490;2023-07-09T12:29:28;22.70;99.90
56861;DHT22;42744;51.094;3.490;2023-07-09T12:31:56;22.60;99.90
56861;DHT22;42744;51.094;3.490;2023-07-09T12:34:24;22.60;99.90
56861;DHT22;42744;51.094;3.490;2023-07-09T12:36:52;22.40;99.90
56861;DHT22;42744;51.094;3.490;2023-07-09T12:39:24;22.20;99.90
56861;DHT22;42744;51.094;3.490;2023-07-09T12:41:55;22.20;99.90
56861;DHT22;42744;51.094;3.490;2023-07-09T12:44:23;22.20;99.90
56861;DHT22;42744;51.094;3.490;2023-07-09T12:46:51;22.10;99.90
56861;DHT22;42744;51.094;3.490;2023-07-09T12:49:25;22.00;99.90
56861;DHT22;42744;51.094;3.490;2023-07-09T12:51:56;22.10;99.90
56861;DHT22;42744;51.094;3.490;2023-07-09T12:54:23;22.40;99.90
56861;DHT22;42744;51.094;3.490;2023-07-09T12:56:53;22.70;99.90
56861;DHT22;42744;51.094;3.490;2023-07-09T13:02:16;23.40;99.90
56861;DHT22;42744;51.094;3.490;2023-07-09T13:04:43;23.70;99.90
56861;DHT22;42744;51.094;3.490;2023-07-09T13:09:48;23.60;99.90
56861;DHT22;42744;51.094;3.490;2023-07-09T13:12:14;23.50;99.90
56861;DHT22;42744;51.094;3.490;2023-07-09T13:14:40;23.50;99.90
56861;DHT22;42744;51.094;3.490;2023-07-09T13:17:10;23.40;99.90
56861;DHT22;42744;51.094;3.490;2023-07-09T13:19:36;23.30;99.90
56861;DHT22;42744;51.094;3.490;2023-07-09T13:22:04;23.10;99.90
56861;DHT22;42744;51.094;3.490;2023-07-09T13:24:32;23.00;99.90
56861;DHT22;42744;51.094;3.490;2023-07-09T13:27:00;23.00;99.90
56861;DHT22;42744;51.094;3.490;2023-07-09T13:29:27;23.00;99.90
56861;DHT22;42744;51.094;3.490;2023-07-09T13:31:57;23.00;99.90
56861;DHT22;42744;51.094;3.490;2023-07-09T13:34:25;23.00;99.90
56861;DHT22;42744;51.094;3.490;2023-07-09T13:36:52;23.00;99.90
56861;DHT22;42744;51.094;3.490;2023-07-09T13:39:27;23.00;99.90
56861;DHT22;42744;51.094;3.490;2023-07-09T13:41:55;23.10;99.90
56861;DHT22;42744;51.094;3.490;2023-07-09T13:44:23;23.10;99.90
56861;DHT22;42744;51.094;3.490;2023-07-09T13:46:51;23.10;99.90
56861;DHT22;42744;51.094;3.490;2023-07-09T13:49:19;23.20;99.90
56861;DHT22;42744;51.094;3.490;2023-07-09T13:51:47;23.10;99.90
56861;DHT22;42744;51.094;3.490;2023-07-09T13:56:45;23.00;99.90
56861;DHT22;42744;51.094;3.490;2023-07-09T13:59:20;22.90;99.90
56861;DHT22;42744;51.094;3.490;2023-07-09T14:01:47;23.00;99.90
56861;DHT22;42744;51.094;3.490;2023-07-09T14:04:15;23.20;99.90
56861;DHT22;42744;51.094;3.490;2023-07-09T14:06:43;23.50;99.90
56861;DHT22;42744;51.094;3.490;2023-07-09T14:09:10;23.80;99.90
56861;DHT22;42744;51.094;3.490;2023-07-09T14:11:54;24.10;99.90
56861;DHT22;42744;51.094;3.490;2023-07-09T14:14:23;24.40;99.90
56861;DHT22;42744;51.094;3.490;2023-07-09T14:16:51;24.70;99.90
56861;DHT22;42744;51.094;3.490;2023-07-09T14:19:21;24.90;99.90
56861;DHT22;42744;51.094;3.490;2023-07-09T14:21:48;24.90;99.90
56861;DHT22;42744;51.094;3.490;2023-07-09T14:24:26;25.10;99.90
56861;DHT22;42744;51.094;3.490;2023-07-09T14:26:53;24.90;99.90
56861;DHT22;42744;51.094;3.490;2023-07-09T14:29:20;24.70;99.90
56861;DHT22;42744;51.094;3.490;2023-07-09T14:31:47;24.40;99.90
56861;DHT22;42744;51.094;3.490;2023-07-09T14:34:24;24.40;99.90
56861;DHT22;42744;51.094;3.490;2023-07-09T14:36:55;24.40;99.90
56861;DHT22;42744;51.094;3.490;2023-07-09T14:39:26;24.50;99.90
56861;DHT22;42744;51.094;3.490;2023-07-09T14:41:53;24.60;99.90
56861;DHT22;42744;51.094;3.490;2023-07-09T14:44:29;24.60;99.90
56861;DHT22;42744;51.094;3.490;2023-07-09T14:47:00;24.70;99.90
56861;DHT22;42744;51.094;3.490;2023-07-09T14:49:27;24.90;99.90
56861;DHT22;42744;51.094;3.490;2023-07-09T14:51:54;24.80;99.90
56861;DHT22;42744;51.094;3.490;2023-07-09T14:54:26;25.00;99.90
56861;DHT22;42744;51.094;3.490;2023-07-09T14:56:53;25.10;99.90
56861;DHT22;42744;51.094;3.490;2023-07-09T14:59:20;25.10;99.90
56861;DHT22;42744;51.094;3.490;2023-07-09T15:01:46;25.20;99.90
56861;DHT22;42744;51.094;3.490;2023-07-09T15:06:53;25.30;99.90
56861;DHT22;42744;51.094;3.490;2023-07-09T15:09:21;25.30;99.90
56861;DHT22;42744;51.094;3.490;2023-07-09T15:12:18;25.40;99.90
56861;DHT22;42744;51.094;3.490;2023-07-09T15:14:45;25.40;99.90
56861;DHT22;42744;51.094;3.490;2023-07-09T15:17:12;25.60;99.90
56861;DHT22;42744;51.094;3.490;2023-07-09T15:19:38;25.90;99.90
56861;DHT22;42744;51.094;3.490;2023-07-09T15:22:08;25.90;99.90
56861;DHT22;42744;51.094;3.490;2023-07-09T15:24:40;25.70;99.90
56861;DHT22;42744;51.094;3.490;2023-07-09T15:27:08;25.60;99.90
56861;DHT22;42744;51.094;3.490;2023-07-09T15:29:34;25.60;99.90
56861;DHT22;42744;51.094;3.490;2023-07-09T15:32:00;25.50;99.90
56861;DHT22;42744;51.094;3.490;2023-07-09T15:34:26;25.40;99.90
56861;DHT22;42744;51.094;3.490;2023-07-09T15:36:52;25.30;99.90
56861;DHT22;42744;51.094;3.490;2023-07-09T15:39:19;25.30;99.90
56861;DHT22;42744;51.094;3.490;2023-07-09T15:41:46;25.40;99.90
56861;DHT22;42744;51.094;3.490;2023-07-09T15:44:14;25.70;99.90
56861;DHT22;42744;51.094;3.490;2023-07-09T15:46:51;25.70;99.90
56861;DHT22;42744;51.094;3.490;2023-07-09T15:49:18;25.60;99.90
56861;DHT22;42744;51.094;3.490;2023-07-09T15:51:44;25.60;99.90
56861;DHT22;42744;51.094;3.490;2023-07-09T15:54:18;25.40;99.90
56861;DHT22;42744;51.094;3.490;2023-07-09T15:56:45;25.40;99.90
56861;DHT22;42744;51.094;3.490;2023-07-09T15:59:30;25.50;99.90
56861;DHT22;42744;51.094;3.490;2023-07-09T16:01:58;25.40;99.90
56861;DHT22;42744;51.094;3.490;2023-07-09T16:04:25;25.20;99.90
56861;DHT22;42744;51.094;3.490;2023-07-09T16:06:52;25.00;99.90
56861;DHT22;42744;51.094;3.490;2023-07-09T16:09:18;25.10;99.90
56861;DHT22;42744;51.094;3.490;2023-07-09T16:11:51;25.20;99.90
56861;DHT22;42744;51.094;3.490;2023-07-09T16:14:24;25.30;99.90
56861;DHT22;42744;51.094;3.490;2023-07-09T16:16:54;25.40;99.90
56861;DHT22;42744;51.094;3.490;2023-07-09T16:19:22;25.50;99.90
56861;DHT22;42744;51.094;3.490;2023-07-09T16:21:51;25.50;99.90
56861;DHT22;42744;51.094;3.490;2023-07-09T16:24:28;25.50;99.90
56861;DHT22;42744;51.094;3.490;2023-07-09T16:26:59;25.40;99.90
56861;DHT22;42744;51.094;3.490;2023-07-09T16:29:31;25.40;99.90
56861;DHT22;42744;51.094;3.490;2023-07-09T16:31:58;25.30;99.90
56861;DHT22;42744;51.094;3.490;2023-07-09T16:34:28;25.30;99.90
56861;DHT22;42744;51.094;3.490;2023-07-09T16:36:55;25.30;99.90